Time;durP1;ratioP1;P1;durP2;ratioP2;P2;SDS_P1;SDS_P2;PMS_P1;PMS_P2;Temp;Humidity;BMP_temperature;BMP_pressure;BME280_temperature;BME280_humidity;BME280_pressure;Samples;Min_cycle;Max_cycle;Signal;HPM_P1;HPM_P2
2022/03/26 00:00:05;;;;;;;25.80;12.15;;;;;;;7.95;32.16;96067.78;5012435;28;20033;-66
2022/03/26 00:02:31;;;;;;;19.23;11.88;;;;;;;7.69;32.30;96035.34;5013118;28;20505;-66
2022/03/26 00:04:56;;;;;;;21.48;12.15;;;;;;;7.83;32.30;96073.38;5011300;28;20040;-67
2022/03/26 00:07:22;;;;;;;21.20;13.15;;;;;;;7.74;32.36;96071.97;5012270;28;20034;-65
2022/03/26 00:09:47;;;;;;;18.50;11.50;;;;;;;7.62;32.56;96075.78;5015967;28;20033;-67
2022/03/26 00:12:13;;;;;;;20.85;11.38;;;;;;;7.49;32.61;96060.00;5014463;28;20038;-67
2022/03/26 00:14:38;;;;;;;18.75;11.95;;;;;;;7.54;33.08;96076.06;5022592;28;20029;-67
2022/03/26 00:17:04;;;;;;;26.08;16.50;;;;;;;7.50;33.09;96071.91;5022060;28;20412;-67
2022/03/26 00:19:30;;;;;;;17.98;11.93;;;;;;;7.45;32.95;96075.53;5019290;28;20045;-68
2022/03/26 00:21:55;;;;;;;17.85;11.07;;;;;;;7.40;32.95;96064.59;5018195;28;20061;-67
2022/03/26 00:24:21;;;;;;;19.08;11.70;;;;;;;7.23;32.74;96049.75;5020205;28;20127;-67
2022/03/26 00:26:47;;;;;;;19.52;11.35;;;;;;;7.44;33.22;96081.56;5016653;28;20060;-67
2022/03/26 00:29:12;;;;;;;16.85;10.80;;;;;;;7.45;33.26;96076.38;5008334;28;20030;-67
2022/03/26 00:31:38;;;;;;;19.65;12.73;;;;;;;7.16;33.05;96028.59;5010844;28;20080;-68
2022/03/26 00:34:06;;;;;;;22.42;11.27;;;;;;;7.47;33.11;96077.16;5016212;28;20091;-69
2022/03/26 00:36:32;;;;;;;17.40;11.27;;;;;;;7.44;33.32;96066.97;5019067;28;20048;-67
2022/03/26 00:38:57;;;;;;;19.40;11.25;;;;;;;7.40;33.55;96051.75;5021191;28;20479;-66
2022/03/26 00:41:23;;;;;;;23.98;14.85;;;;;;;7.53;33.84;96079.50;5010421;28;20118;-66
2022/03/26 00:43:49;;;;;;;18.98;11.38;;;;;;;7.46;33.62;96067.78;5020953;28;20025;-67
2022/03/26 00:46:15;;;;;;;15.13;10.82;;;;;;;7.34;34.13;96081.03;5008420;28;20548;-67
2022/03/26 00:48:41;;;;;;;17.80;11.38;;;;;;;6.86;34.32;96036.41;5013442;28;20042;-67
2022/03/26 00:51:06;;;;;;;18.70;10.88;;;;;;;7.05;34.76;96084.53;5012335;28;20038;-67
2022/03/26 00:53:32;;;;;;;20.02;11.85;;;;;;;6.99;34.95;96088.13;5011788;28;20034;-68
2022/03/26 00:55:57;;;;;;;22.67;11.73;;;;;;;6.81;34.62;96054.50;5008114;28;20037;-66
2022/03/26 00:58:23;;;;;;;16.73;11.75;;;;;;;7.11;34.47;96090.28;5010305;28;20029;-66
2022/03/26 01:00:48;;;;;;;21.77;11.35;;;;;;;6.93;34.48;96078.91;5018028;28;20025;-68
2022/03/26 01:03:16;;;;;;;18.98;11.70;;;;;;;6.79;35.02;96074.22;5009740;28;20033;-67
2022/03/26 01:05:42;;;;;;;20.00;11.00;;;;;;;6.85;35.17;96097.97;5018001;28;20414;-69
2022/03/26 01:08:07;;;;;;;18.90;11.20;;;;;;;6.35;35.17;96055.91;5007748;28;20033;-67
2022/03/26 01:10:33;;;;;;;17.15;12.30;;;;;;;6.46;35.71;96078.66;5007565;28;20029;-67
2022/03/26 01:12:58;;;;;;;16.48;11.57;;;;;;;6.55;35.13;96104.00;5015469;28;20120;-67
2022/03/26 01:15:24;;;;;;;19.83;12.10;;;;;;;6.30;35.96;96085.94;5013850;28;20044;-68
2022/03/26 01:17:49;;;;;;;20.63;11.68;;;;;;;6.41;36.08;96106.97;5009477;28;20068;-68
2022/03/26 01:20:17;;;;;;;18.63;11.70;;;;;;;6.31;35.99;96100.41;5010433;28;20451;-67
2022/03/26 01:22:44;;;;;;;21.05;12.77;;;;;;;6.36;36.02;96118.22;5019461;28;20053;-67
2022/03/26 01:25:10;;;;;;;22.13;12.52;;;;;;;5.99;36.30;96056.09;5019519;28;20393;-67
2022/03/26 01:27:36;;;;;;;18.27;11.00;;;;;;;6.16;36.13;96099.13;5012535;28;20021;-67
2022/03/26 01:30:02;;;;;;;18.80;12.68;;;;;;;6.28;35.89;96118.47;5007542;28;20116;-66
2022/03/26 01:32:28;;;;;;;24.02;12.80;;;;;;;6.21;36.36;96119.50;5008261;28;20805;-66
2022/03/26 01:34:53;;;;;;;19.85;12.32;;;;;;;6.19;36.36;96122.09;5007334;28;20061;-67
2022/03/26 01:37:18;;;;;;;19.27;12.30;;;;;;;6.27;36.72;96128.75;5014908;28;20511;-68
2022/03/26 01:39:44;;;;;;;20.88;13.05;;;;;;;6.29;36.25;96120.13;5022915;28;20060;-69
2022/03/26 01:42:09;;;;;;;20.63;12.65;;;;;;;6.15;36.68;96112.84;5023771;28;20025;-68
2022/03/26 01:44:37;;;;;;;22.40;14.85;;;;;;;6.22;36.59;96118.63;5022948;28;20025;-68
2022/03/26 01:47:04;;;;;;;25.13;13.38;;;;;;;6.10;36.68;96124.06;5020723;28;20118;-67
2022/03/26 01:49:31;;;;;;;22.27;13.82;;;;;;;5.68;37.16;96076.53;5010042;28;20057;-66
2022/03/26 01:51:58;;;;;;;25.80;14.48;;;;;;;5.86;37.48;96128.97;5012861;28;20113;-67
2022/03/26 01:54:25;;;;;;;21.73;13.68;;;;;;;5.65;37.13;96102.22;5018760;28;20045;-68
2022/03/26 01:56:51;;;;;;;26.80;13.55;;;;;;;5.34;38.04;96078.28;5006230;28;20121;-66
2022/03/26 01:59:17;;;;;;;21.77;13.63;;;;;;;5.60;38.04;96127.91;5007880;28;21556;-66
2022/03/26 02:01:43;;;;;;;30.52;14.27;;;;;;;5.44;38.14;96116.38;5018615;28;20025;-66
2022/03/26 02:04:09;;;;;;;26.92;15.05;;;;;;;5.22;38.13;96093.91;5009592;28;20030;-66
2022/03/26 02:06:37;;;;;;;24.75;14.75;;;;;;;5.15;38.56;96103.44;5016452;28;20461;-66
2022/03/26 02:09:05;;;;;;;23.73;14.77;;;;;;;5.25;38.24;96121.13;5017781;28;20028;-68
2022/03/26 02:11:32;;;;;;;23.45;14.38;;;;;;;5.28;38.87;96139.81;5013253;28;20030;-67
2022/03/26 02:13:58;;;;;;;25.63;14.55;;;;;;;5.13;39.15;96114.56;5016151;28;20036;-66
2022/03/26 02:16:25;;;;;;;25.73;14.55;;;;;;;5.36;38.70;96138.75;5014523;28;20025;-67
2022/03/26 02:18:52;;;;;;;22.88;13.65;;;;;;;5.18;38.73;96101.69;5013344;28;20633;-67
2022/03/26 02:21:18;;;;;;;22.98;13.90;;;;;;;5.29;38.66;96128.66;5013827;28;20413;-66
2022/03/26 02:23:44;;;;;;;26.67;13.88;;;;;;;5.41;38.80;96147.16;5013200;28;20444;-66
2022/03/26 02:26:16;;;;;;;24.27;13.95;;;;;;;5.13;38.93;96100.09;5009534;28;20095;-67
2022/03/26 02:28:44;;;;;;;;;;;;;;;5.35;39.14;96153.28;5023148;28;20480;-66
2022/03/26 02:31:10;;;;;;;23.00;13.57;;;;;;;4.99;39.27;96101.31;5013318;28;20019;-67
2022/03/26 02:33:36;;;;;;;21.58;13.45;;;;;;;5.30;39.30;96147.44;5013715;28;20030;-66
2022/03/26 02:36:01;;;;;;;28.23;15.35;;;;;;;5.18;39.44;96122.97;5014772;28;20040;-68
2022/03/26 02:38:27;;;;;;;21.45;13.63;;;;;;;5.30;39.10;96152.56;5016629;28;20068;-67
2022/03/26 02:40:52;;;;;;;22.73;14.20;;;;;;;4.98;39.70;96097.88;5025650;28;20057;-65
2022/03/26 02:43:18;;;;;;;25.23;13.52;;;;;;;5.27;39.15;96147.50;5022381;28;20026;-66
2022/03/26 02:45:44;;;;;;;24.95;14.93;;;;;;;4.86;39.36;96087.97;5026196;28;20037;-68
2022/03/26 02:48:12;;;;;;;22.52;13.73;;;;;;;5.10;39.45;96122.31;5023798;28;20029;-67
2022/03/26 02:50:44;;;;;;;23.27;13.88;;;;;;;5.03;39.92;96119.06;5024977;28;20037;-67
2022/03/26 02:53:11;;;;;;;26.63;14.35;;;;;;;5.25;39.62;96147.53;5020694;28;20029;-66
2022/03/26 02:55:38;;;;;;;22.80;13.35;;;;;;;5.04;39.78;96127.59;5018729;28;20029;-66
2022/03/26 02:58:04;;;;;;;21.48;12.52;;;;;;;5.24;39.48;96156.09;5023977;28;20025;-66
2022/03/26 03:00:30;;;;;;;22.45;13.70;;;;;;;5.19;39.78;96160.47;5019581;28;20029;-67
2022/03/26 03:02:55;;;;;;;19.48;12.52;;;;;;;4.92;39.96;96134.69;5021663;28;20032;-67
2022/03/26 03:05:21;;;;;;;18.55;11.52;;;;;;;5.01;40.63;96160.91;5024898;28;20025;-66
2022/03/26 03:07:47;;;;;;;20.55;13.05;;;;;;;4.87;40.32;96145.84;5018860;28;20525;-67
2022/03/26 03:10:15;;;;;;;20.65;12.85;;;;;;;4.87;40.74;96163.75;5013037;28;20061;-68
2022/03/26 03:12:45;;;;;;;21.85;13.05;;;;;;;4.68;41.41;96173.56;5025293;28;20061;-67
2022/03/26 03:15:11;;;;;;;22.95;11.73;;;;;;;4.54;41.61;96164.47;5026273;28;20527;-67
2022/03/26 03:17:41;;;;;;;19.50;11.93;;;;;;;4.45;41.97;96163.81;5018887;28;20033;-67
2022/03/26 03:20:14;;;;;;;18.73;12.05;;;;;;;4.32;42.04;96155.56;5012131;28;20026;-66
2022/03/26 03:22:40;;;;;;;20.90;12.15;;;;;;;4.29;42.41;96166.66;5016255;28;20542;-66
2022/03/26 03:25:06;;;;;;;18.92;11.27;;;;;;;4.17;42.52;96174.56;5012583;28;20025;-68
2022/03/26 03:27:32;;;;;;;23.38;12.77;;;;;;;4.07;42.75;96168.81;5025969;28;20033;-68
2022/03/26 03:29:58;;;;;;;18.85;11.90;;;;;;;4.03;43.26;96165.47;5023851;28;20685;-67
2022/03/26 03:32:24;;;;;;;20.70;13.05;;;;;;;3.93;42.71;96135.88;5029241;28;20041;-67
2022/03/26 03:34:50;;;;;;;21.27;13.43;;;;;;;4.15;42.86;96172.06;5029940;28;20049;-66
2022/03/26 03:37:17;;;;;;;21.27;12.88;;;;;;;4.26;42.68;96168.44;5029690;28;20508;-67
2022/03/26 03:39:42;;;;;;;20.75;13.02;;;;;;;4.30;42.84;96164.97;5023947;28;20029;-67
2022/03/26 03:42:08;;;;;;;23.67;13.65;;;;;;;4.05;42.73;96120.34;5016992;28;20562;-66
2022/03/26 03:44:34;;;;;;;21.92;13.55;;;;;;;4.37;42.94;96169.06;5021319;28;20057;-67
2022/03/26 03:46:59;;;;;;;22.75;14.05;;;;;;;4.37;43.26;96164.78;5019100;28;20033;-67
2022/03/26 03:49:26;;;;;;;21.88;14.13;;;;;;;4.23;43.01;96144.66;5014824;28;20045;-67
2022/03/26 03:51:52;;;;;;;31.85;14.40;;;;;;;4.41;43.13;96157.91;5019719;28;20106;-69
2022/03/26 03:54:18;;;;;;;27.23;15.05;;;;;;;4.45;43.00;96174.03;5022082;28;20037;-66
2022/03/26 03:56:43;;;;;;;23.20;14.40;;;;;;;4.38;43.30;96173.31;5012068;28;20033;-67
2022/03/26 03:59:09;;;;;;;22.10;14.85;;;;;;;4.31;43.19;96171.75;5015365;28;20029;-67
2022/03/26 04:01:34;;;;;;;22.52;13.70;;;;;;;4.31;43.68;96176.84;5021715;28;20029;-67
2022/03/26 04:04:00;;;;;;;26.38;14.52;;;;;;;4.27;43.52;96177.78;5012436;28;20568;-68
2022/03/26 04:06:26;;;;;;;24.27;14.45;;;;;;;4.22;43.87;96182.97;5011397;28;20037;-66
2022/03/26 04:08:51;;;;;;;22.02;14.40;;;;;;;3.92;43.91;96141.00;5009835;28;20049;-66
2022/03/26 04:11:17;;;;;;;24.58;14.93;;;;;;;4.12;43.62;96191.69;5022830;28;20477;-67
2022/03/26 04:13:43;;;;;;;22.30;13.20;;;;;;;4.10;44.16;96186.63;5020198;28;20077;-68
2022/03/26 04:16:08;;;;;;;23.85;15.88;;;;;;;4.12;44.29;96192.53;5023292;28;20030;-67
2022/03/26 04:18:34;;;;;;;21.92;13.77;;;;;;;4.07;44.32;96191.78;5021412;28;20031;-66
2022/03/26 04:21:00;;;;;;;21.95;13.27;;;;;;;3.93;44.27;96174.16;5013087;28;20045;-66
2022/03/26 04:23:26;;;;;;;24.92;15.60;;;;;;;4.00;44.39;96183.41;5011570;28;20084;-67
2022/03/26 04:25:52;;;;;;;24.58;14.45;;;;;;;4.03;44.42;96182.47;5012931;28;20034;-67
2022/03/26 04:28:18;;;;;;;22.90;14.98;;;;;;;3.92;44.68;96179.28;5013820;28;20034;-67
2022/03/26 04:30:43;;;;;;;22.35;14.05;;;;;;;4.15;44.57;96207.78;5021933;28;20030;-66
2022/03/26 04:33:09;;;;;;;27.48;15.27;;;;;;;4.10;44.36;96206.19;5011011;28;20080;-66
2022/03/26 04:35:35;;;;;;;24.10;15.55;;;;;;;3.99;44.56;96185.97;5008796;28;20493;-66
2022/03/26 04:38:01;;;;;;;29.48;16.25;;;;;;;4.13;44.11;96208.69;5011497;28;20117;-68
2022/03/26 04:40:29;;;;;;;23.80;13.73;;;;;;;3.99;44.36;96216.59;5022212;28;20053;-66
2022/03/26 04:42:55;;;;;;;25.42;15.35;;;;;;;3.93;44.26;96220.09;5012506;28;20026;-66
2022/03/26 04:45:23;;;;;;;20.63;13.68;;;;;;;3.81;44.88;96215.22;5017895;28;20045;-67
2022/03/26 04:47:48;;;;;;;27.13;14.27;;;;;;;3.75;45.03;96207.66;5013083;28;20045;-66
2022/03/26 04:50:13;;;;;;;25.88;14.93;;;;;;;4.00;44.55;96228.47;5010970;28;20025;-67
2022/03/26 04:52:39;;;;;;;23.55;13.63;;;;;;;3.99;44.42;96230.19;5014439;28;20455;-68
2022/03/26 04:55:08;;;;;;;22.25;14.85;;;;;;;3.97;44.49;96229.38;5011279;28;20111;-68
2022/03/26 04:57:41;;;;;;;22.95;13.98;;;;;;;3.92;44.28;96215.88;5011587;28;20038;-67
2022/03/26 05:00:10;;;;;;;24.10;15.00;;;;;;;3.96;44.40;96232.81;5019407;28;20546;-68
2022/03/26 05:02:39;;;;;;;22.33;14.82;;;;;;;3.63;44.69;96193.41;5009249;28;20040;-71
2022/03/26 05:05:09;;;;;;;25.88;15.45;;;;;;;3.79;44.76;96224.63;5013177;28;20032;-68
2022/03/26 05:07:47;;;;;;;24.52;13.68;;;;;;;3.80;44.65;96227.09;5017185;28;20108;-68
2022/03/26 05:10:16;;;;;;;23.88;14.07;;;;;;;3.78;44.76;96238.22;5014836;28;20037;-67
2022/03/26 05:12:42;;;;;;;21.48;13.57;;;;;;;3.93;44.81;96234.56;5018794;28;20084;-68
2022/03/26 05:15:08;;;;;;;18.88;12.70;;;;;;;3.93;44.47;96239.66;5014878;28;20029;-67
2022/03/26 05:17:35;;;;;;;22.38;13.52;;;;;;;3.98;44.61;96241.25;5014128;28;20159;-66
2022/03/26 05:20:01;;;;;;;23.77;14.40;;;;;;;3.93;44.66;96217.53;5015979;28;20028;-66
2022/03/26 05:22:26;;;;;;;24.73;13.88;;;;;;;4.16;44.37;96250.31;5014762;28;20432;-65
2022/03/26 05:24:53;;;;;;;23.85;13.65;;;;;;;4.20;44.31;96246.00;5013967;28;20086;-67
2022/03/26 05:27:20;;;;;;;20.95;13.23;;;;;;;4.17;44.07;96252.00;5028063;28;20028;-69
2022/03/26 05:29:46;;;;;;;19.50;13.65;;;;;;;4.16;44.01;96241.81;5022831;28;20017;-66
2022/03/26 05:32:13;;;;;;;19.58;12.90;;;;;;;4.12;43.90;96227.44;5024516;28;20035;-68
2022/03/26 05:34:39;;;;;;;23.83;14.77;;;;;;;4.12;44.23;96246.13;5022989;28;20021;-66
2022/03/26 05:37:05;;;;;;;26.90;13.90;;;;;;;4.03;44.32;96230.97;5022752;28;20039;-69
2022/03/26 05:39:32;;;;;;;22.05;13.75;;;;;;;4.20;44.21;96246.00;5025980;28;20497;-68
2022/03/26 05:41:58;;;;;;;23.40;14.30;;;;;;;4.31;43.83;96250.91;5027856;28;20041;-66
2022/03/26 05:44:23;;;;;;;22.92;14.68;;;;;;;4.45;44.14;96258.31;5027817;28;20025;-65
2022/03/26 05:46:49;;;;;;;24.35;14.23;;;;;;;4.60;43.75;96251.19;5027442;28;20032;-66
2022/03/26 05:49:16;;;;;;;27.38;14.73;;;;;;;4.56;43.87;96253.84;5028423;28;20017;-67
2022/03/26 05:51:42;;;;;;;25.50;12.98;;;;;;;4.69;43.27;96260.41;5028112;28;20485;-67
2022/03/26 05:54:08;;;;;;;20.48;14.30;;;;;;;4.58;43.39;96241.88;5028112;28;20416;-67
2022/03/26 05:56:36;;;;;;;23.58;14.27;;;;;;;4.76;42.91;96243.22;5027832;28;20021;-67
2022/03/26 05:59:06;;;;;;;26.67;15.52;;;;;;;4.97;42.73;96258.09;5027872;28;20052;-68
2022/03/26 06:01:33;;;;;;;22.77;14.13;;;;;;;5.13;42.37;96261.19;5028265;28;20039;-66
2022/03/26 06:03:58;;;;;;;22.05;14.63;;;;;;;4.90;41.90;96220.78;5026996;28;20435;-69
2022/03/26 06:06:25;;;;;;;23.63;15.02;;;;;;;4.81;41.90;96197.97;5027742;28;20105;-66
2022/03/26 06:08:51;;;;;;;28.73;15.20;;;;;;;5.10;41.65;96234.81;5027869;28;20036;-66
2022/03/26 06:11:17;;;;;;;25.23;14.57;;;;;;;4.88;41.30;96158.59;5027740;28;20156;-67
2022/03/26 06:13:42;;;;;;;23.05;16.00;;;;;;;5.61;41.17;96257.56;5027955;28;20022;-66
2022/03/26 06:16:08;;;;;;;25.05;15.07;;;;;;;5.85;40.36;96265.50;5020303;28;20508;-67
2022/03/26 06:18:34;;;;;;;27.42;17.25;;;;;;;5.83;39.96;96242.50;5008389;28;20410;-66
2022/03/26 06:21:00;;;;;;;21.52;15.40;;;;;;;5.84;39.76;96215.22;5011216;28;20042;-66
2022/03/26 06:23:26;;;;;;;30.60;15.88;;;;;;;5.85;39.46;96222.84;5015789;28;20026;-66
2022/03/26 06:25:52;;;;;;;26.70;15.77;;;;;;;6.16;39.61;96267.34;5008425;28;20022;-68
2022/03/26 06:28:19;;;;;;;26.42;16.25;;;;;;;6.22;39.39;96264.63;5022082;28;20033;-67
2022/03/26 06:30:48;;;;;;;24.92;16.77;;;;;;;6.16;39.75;96249.41;5020911;28;20041;-68
2022/03/26 06:33:15;;;;;;;27.25;14.55;;;;;;;6.48;39.03;96265.63;5009775;28;20032;-65
2022/03/26 06:35:45;;;;;;;28.17;16.20;;;;;;;6.35;39.17;96242.94;5012774;28;20053;-65
2022/03/26 06:38:11;;;;;;;25.55;17.10;;;;;;;6.62;38.61;96272.09;5014378;28;20030;-67
2022/03/26 06:40:38;;;;;;;25.60;17.48;;;;;;;6.72;38.36;96259.88;5008046;28;20026;-68
2022/03/26 06:43:05;;;;;;;24.83;16.95;;;;;;;6.78;37.79;96254.56;5008189;28;20034;-67
2022/03/26 06:45:30;;;;;;;27.83;17.00;;;;;;;6.88;38.16;96262.00;5022523;28;20029;-66
2022/03/26 06:47:56;;;;;;;24.52;15.75;;;;;;;6.78;37.73;96239.16;5025936;28;20709;-66
2022/03/26 06:50:22;;;;;;;25.13;16.02;;;;;;;6.84;37.53;96225.34;5027065;28;20029;-67
2022/03/26 06:52:48;;;;;;;27.15;16.15;;;;;;;7.15;37.40;96275.75;5018467;28;20450;-67
2022/03/26 06:55:13;;;;;;;25.38;16.58;;;;;;;7.02;37.44;96253.88;5007834;28;20042;-67
2022/03/26 06:57:41;;;;;;;26.65;16.77;;;;;;;7.21;37.63;96278.13;5022696;28;20051;-68
2022/03/26 07:00:11;;;;;;;27.65;17.13;;;;;;;7.45;36.98;96273.97;5025730;28;20110;-66
2022/03/26 07:02:37;;;;;;;29.50;17.30;;;;;;;7.48;36.65;96262.78;5011748;28;20049;-66
2022/03/26 07:05:04;;;;;;;24.42;16.95;;;;;;;7.46;36.38;96264.56;5020168;28;20068;-67
2022/03/26 07:07:30;;;;;;;26.45;16.38;;;;;;;7.55;35.99;96271.97;5024354;28;20032;-67
2022/03/26 07:09:56;;;;;;;30.90;17.25;;;;;;;7.50;36.34;96261.00;5010951;28;20063;-68
2022/03/26 07:12:22;;;;;;;28.35;18.45;;;;;;;7.86;36.09;96278.72;5027168;28;20028;-67
2022/03/26 07:14:48;;;;;;;27.80;18.63;;;;;;;7.75;35.48;96232.81;5025486;28;20114;-67
2022/03/26 07:17:18;;;;;;;29.90;17.80;;;;;;;8.05;35.30;96266.09;5010793;28;20137;-67
2022/03/26 07:19:44;;;;;;;27.87;18.47;;;;;;;8.09;35.26;96232.56;5010804;28;20037;-67
2022/03/26 07:22:10;;;;;;;29.95;18.63;;;;;;;8.57;34.62;96287.50;5011559;28;20413;-69
2022/03/26 07:24:36;;;;;;;30.40;18.65;;;;;;;8.63;34.54;96287.28;5021986;28;20033;-67
2022/03/26 07:27:02;;;;;;;30.77;18.50;;;;;;;8.28;34.31;96240.47;5023633;28;20049;-67
2022/03/26 07:29:27;;;;;;;28.08;17.27;;;;;;;7.88;34.44;96179.34;5012926;28;20034;-67
2022/03/26 07:31:54;;;;;;;28.70;18.50;;;;;;;8.46;34.20;96276.75;5024674;28;20574;-67
2022/03/26 07:34:20;;;;;;;25.38;17.00;;;;;;;8.47;34.52;96286.16;5025557;28;20542;-66
2022/03/26 07:36:46;;;;;;;27.70;18.33;;;;;;;8.64;33.98;96255.56;5020762;28;20034;-68
2022/03/26 07:39:13;;;;;;;26.08;17.00;;;;;;;8.79;33.83;96249.00;5011068;28;20068;-66
2022/03/26 07:41:39;;;;;;;31.67;19.05;;;;;;;9.25;32.96;96282.50;5011476;28;20022;-67
2022/03/26 07:44:05;;;;;;;27.63;18.58;;;;;;;9.09;33.18;96206.78;5012026;28;20632;-67
2022/03/26 07:46:30;;;;;;;26.35;19.05;;;;;;;9.42;32.35;96245.81;5030243;28;20116;-68
2022/03/26 07:48:56;;;;;;;28.55;17.90;;;;;;;9.46;32.42;96255.09;5030208;28;20029;-68
2022/03/26 07:51:22;;;;;;;24.50;16.90;;;;;;;9.50;31.88;96273.84;5030546;28;20040;-68
2022/03/26 07:53:47;;;;;;;24.90;16.77;;;;;;;9.41;31.86;96248.44;5030118;28;20025;-68
2022/03/26 07:56:13;;;;;;;23.77;16.58;;;;;;;9.62;31.63;96260.47;5030296;28;20029;-68
2022/03/26 07:58:39;;;;;;;23.80;15.82;;;;;;;9.97;31.12;96291.75;5015807;28;20037;-69
2022/03/26 08:01:06;;;;;;;32.70;17.52;;;;;;;10.16;30.40;96285.84;5030141;28;20051;-68
2022/03/26 08:03:33;;;;;;;28.27;18.13;;;;;;;10.22;31.58;96260.63;5030380;28;20037;-68
2022/03/26 08:05:59;;;;;;;26.88;17.98;;;;;;;10.40;31.20;96278.88;5030041;28;20155;-70
2022/03/26 08:08:25;;;;;;;24.20;18.17;;;;;;;10.48;30.31;96280.19;5029542;28;20029;-68
2022/03/26 08:10:51;;;;;;;29.83;18.35;;;;;;;10.65;30.75;96264.00;5029451;28;20045;-65
2022/03/26 08:13:17;;;;;;;28.73;17.58;;;;;;;10.99;30.25;96269.44;5023056;28;20037;-69
2022/03/26 08:15:43;;;;;;;25.58;17.48;;;;;;;10.90;29.72;96244.03;5017795;28;20763;-68
2022/03/26 08:18:09;;;;;;;28.45;18.38;;;;;;;11.03;29.90;96268.38;5023572;28;20033;-67
2022/03/26 08:20:35;;;;;;;23.73;17.67;;;;;;;11.14;29.11;96265.31;5025706;28;20041;-69
2022/03/26 08:23:01;;;;;;;25.67;17.63;;;;;;;11.01;29.36;96249.53;5022503;28;20556;-68
2022/03/26 08:28:11;;;;;;;27.27;17.83;;;;;;;11.22;29.33;96258.88;5023061;28;20107;-67
2022/03/26 08:30:40;;;;;;;26.63;19.02;;;;;;;11.30;28.72;96261.13;5026671;28;20045;-69
2022/03/26 08:33:06;;;;;;;26.77;17.73;;;;;;;11.22;28.29;96221.91;5024199;28;20032;-69
2022/03/26 08:35:38;;;;;;;26.75;18.60;;;;;;;11.43;28.31;96238.16;5018626;28;20473;-68
2022/03/26 08:38:05;;;;;;;34.10;18.45;;;;;;;11.44;28.55;96231.25;5024892;28;20524;-66
2022/03/26 08:40:31;;;;;;;25.48;18.05;;;;;;;11.60;27.81;96247.69;5024087;28;20083;-68
2022/03/26 08:42:58;;;;;;;27.63;17.95;;;;;;;11.75;27.76;96257.28;5025498;28;20049;-70
2022/03/26 08:45:28;;;;;;;28.15;18.88;;;;;;;11.19;28.09;96140.25;5025892;28;20065;-69
2022/03/26 08:47:55;;;;;;;25.65;17.17;;;;;;;11.90;27.66;96229.88;5026595;28;20033;-70
2022/03/26 08:50:23;;;;;;;31.38;18.27;;;;;;;12.15;27.43;96244.22;5022182;28;20017;-69
2022/03/26 08:52:49;;;;;;;25.40;17.88;;;;;;;12.10;27.24;96189.28;5026190;28;20049;-69
2022/03/26 08:55:16;;;;;;;25.25;17.83;;;;;;;11.99;27.53;96186.44;5023081;28;20048;-69
2022/03/26 08:57:43;;;;;;;30.42;19.15;;;;;;;12.39;27.06;96220.59;5025814;28;20073;-69
2022/03/26 09:00:09;;;;;;;28.33;18.73;;;;;;;12.57;26.51;96226.59;5024601;28;20496;-69
2022/03/26 09:02:36;;;;;;;29.63;18.35;;;;;;;12.46;26.56;96206.44;5026063;28;20038;-70
2022/03/26 09:05:02;;;;;;;24.10;17.48;;;;;;;12.65;26.43;96206.31;5018235;28;20029;-70
2022/03/26 09:07:28;;;;;;;23.55;16.83;;;;;;;13.22;25.69;96234.38;5025703;28;20533;-69
2022/03/26 09:09:53;;;;;;;24.90;17.42;;;;;;;16.32;21.62;96190.63;5024483;28;20168;-69
2022/03/26 09:12:19;;;;;;;21.55;14.73;;;;;;;18.54;18.90;96190.50;5018207;28;20094;-69
2022/03/26 09:14:44;;;;;;;24.55;16.58;;;;;;;20.59;16.77;96177.69;5024809;28;20033;-69
2022/03/26 09:17:10;;;;;;;20.60;13.30;;;;;;;19.88;17.11;96187.03;5022078;28;20072;-68
2022/03/26 09:19:36;;;;;;;18.75;15.18;;;;;;;22.81;15.16;96187.75;5024764;28;20040;-69
2022/03/26 09:22:02;;;;;;;21.00;15.80;;;;;;;24.31;13.87;96179.47;5021170;28;20491;-68
2022/03/26 09:24:28;;;;;;;22.33;16.33;;;;;;;25.44;13.48;96181.25;5024712;28;20041;-69
2022/03/26 09:26:54;;;;;;;22.20;17.27;;;;;;;26.86;12.39;96176.66;5020999;28;20116;-69
2022/03/26 09:29:20;;;;;;;19.73;14.88;;;;;;;28.08;11.32;96177.06;5021042;28;20542;-68
2022/03/26 09:31:46;;;;;;;21.33;16.48;;;;;;;28.92;10.65;96173.47;5020771;28;20519;-67
2022/03/26 09:34:11;;;;;;;21.98;15.15;;;;;;;29.77;10.38;96177.38;5023172;28;20078;-69
2022/03/26 09:36:37;;;;;;;19.00;15.48;;;;;;;30.02;10.11;96164.59;5023858;28;20037;-70
2022/03/26 09:39:02;;;;;;;18.67;16.45;;;;;;;29.43;10.48;96168.22;5021282;28;20026;-69
2022/03/26 09:41:31;;;;;;;18.67;14.30;;;;;;;29.38;10.73;96169.78;5024555;28;20397;-70
2022/03/26 09:43:57;;;;;;;15.68;10.93;;;;;;;29.53;10.38;96170.56;5022644;28;20634;-69
2022/03/26 09:46:24;;;;;;;14.15;11.13;;;;;;;30.71;9.88;96155.09;5024195;28;20036;-68
2022/03/26 09:48:50;;;;;;;13.70;10.63;;;;;;;30.37;10.31;96098.19;5022954;28;20034;-69
2022/03/26 09:51:20;;;;;;;15.90;11.65;;;;;;;31.36;9.46;96132.69;5024669;28;20061;-70
2022/03/26 09:53:50;;;;;;;19.52;11.52;;;;;;;31.56;9.89;96154.09;5020263;28;21198;-69
2022/03/26 09:56:16;;;;;;;13.88;10.40;;;;;;;32.63;9.50;96141.69;5023032;28;20059;-70
2022/03/26 09:58:42;;;;;;;13.10;10.77;;;;;;;33.82;8.53;96134.25;5027469;28;20511;-66
2022/03/26 10:01:08;;;;;;;13.15;9.95;;;;;;;32.99;8.69;96145.69;5027340;28;20026;-65
2022/03/26 10:03:35;;;;;;;19.30;10.90;;;;;;;32.27;9.34;96150.94;5007782;28;20076;-67
2022/03/26 10:06:05;;;;;;;14.25;10.30;;;;;;;33.18;8.32;96143.22;5008022;28;20411;-68
2022/03/26 10:08:38;;;;;;;13.18;10.05;;;;;;;33.50;8.03;96141.41;5017277;28;20131;-66
2022/03/26 10:11:04;;;;;;;12.93;10.43;;;;;;;32.78;8.67;96102.22;5022570;28;20033;-67
2022/03/26 10:13:38;;;;;;;14.35;11.25;;;;;;;32.05;8.87;96103.06;5025009;28;20124;-67
2022/03/26 10:16:06;;;;;;;12.30;9.32;;;;;;;31.67;9.42;96129.53;5018206;28;20025;-68
2022/03/26 10:18:38;;;;;;;12.38;9.43;;;;;;;31.96;9.33;96120.31;5006441;28;20038;-68
2022/03/26 10:21:07;;;;;;;11.13;9.45;;;;;;;33.19;9.22;96124.31;5006493;28;20325;-67
2022/03/26 10:23:32;;;;;;;13.40;9.27;;;;;;;33.79;8.46;96107.94;5007994;28;20033;-67
2022/03/26 10:26:12;;;;;;;13.40;9.15;;;;;;;33.20;8.62;96123.25;5007899;28;20064;-66
2022/03/26 10:28:42;;;;;;;15.50;9.63;;;;;;;33.67;8.61;96115.81;5025632;28;20029;-65
2022/03/26 10:34:07;;;;;;;14.25;9.73;;;;;;;34.73;7.68;96107.16;5014394;28;20057;-66
2022/03/26 10:36:46;;;;;;;13.10;11.13;;;;;;;34.01;8.17;96111.06;5019593;28;20030;-66
2022/03/26 10:39:16;;;;;;;13.35;9.85;;;;;;;34.67;8.54;96102.69;5026596;28;20103;-67
2022/03/26 10:41:42;;;;;;;23.95;13.23;;;;;;;34.21;7.92;96094.88;5027146;28;20029;-66
2022/03/26 10:44:19;;;;;;;11.82;8.45;;;;;;;32.56;9.03;96101.63;5024984;28;20041;-67
2022/03/26 10:46:51;;;;;;;12.23;8.75;;;;;;;30.35;10.38;96100.19;5026829;28;20107;-67
2022/03/26 10:49:30;;;;;;;9.07;7.45;;;;;;;32.34;9.50;96094.91;5026810;28;20037;-65
2022/03/26 10:52:03;;;;;;;10.65;8.32;;;;;;;33.21;8.90;96081.34;5029363;28;20053;-68
2022/03/26 10:54:31;;;;;;;10.68;7.97;;;;;;;33.42;8.50;96097.03;5030622;28;20037;-69
2022/03/26 10:56:58;;;;;;;11.52;8.45;;;;;;;34.25;8.04;96095.25;5030469;28;20033;-69
2022/03/26 10:59:25;;;;;;;13.48;8.75;;;;;;;34.56;7.96;96075.59;5030987;28;20033;-71
2022/03/26 11:01:50;;;;;;;11.88;8.00;;;;;;;34.53;7.67;96081.38;5031362;28;20031;-71
2022/03/26 11:04:16;;;;;;;11.35;8.13;;;;;;;34.49;7.87;96028.50;5030270;28;20444;-71
2022/03/26 11:06:43;;;;;;;18.75;9.70;;;;;;;35.75;7.68;96070.81;5030631;28;20025;-70
2022/03/26 11:09:10;;;;;;;10.13;7.85;;;;;;;34.36;7.63;96040.19;5030221;28;20100;-70
2022/03/26 11:11:36;;;;;;;12.55;8.50;;;;;;;34.84;7.55;96068.09;5030472;28;20029;-69
2022/03/26 11:14:07;;;;;;;9.55;7.28;;;;;;;33.08;8.14;96066.16;5030272;28;20124;-70
2022/03/26 11:17:05;;;;;;;11.70;7.68;;;;;;;32.60;8.94;96059.31;5028672;28;20037;-72
2022/03/26 11:19:52;;;;;;;11.80;7.47;;;;;;;33.59;7.94;96051.88;5029678;28;20029;-68
2022/03/26 11:22:44;;;;;;;12.88;8.40;;;;;;;35.05;7.46;96043.50;5029040;28;20115;-69
2022/03/26 11:25:37;;;;;;;11.40;7.90;;;;;;;35.58;7.33;96044.63;5029783;28;20129;-71
2022/03/26 11:28:38;;;;;;;10.77;8.07;;;;;;;34.01;8.08;96051.38;5029814;28;20176;-69